sensor_id;sensor_type;location;lat;lon;timestamp;pressure;altitude;pressure_sealevel;temperature
69597;BMP180;70000;51.176;-115.568;2024-03-02T00:00:35;84906.20;;;-7.30
69597;BMP180;70000;51.176;-115.568;2024-03-02T00:03:04;84913.00;;;-7.30
69597;BMP180;70000;51.176;-115.568;2024-03-02T00:05:33;84910.60;;;-7.40
69597;BMP180;70000;51.176;-115.568;2024-03-02T00:08:05;84911.60;;;-7.40
69597;BMP180;70000;51.176;-115.568;2024-03-02T00:10:39;84910.00;;;-7.42
69597;BMP180;70000;51.176;-115.568;2024-03-02T00:13:09;84905.60;;;-7.48
69597;BMP180;70000;51.176;-115.568;2024-03-02T00:15:48;84911.80;;;-7.50
69597;BMP180;70000;51.176;-115.568;2024-03-02T00:18:35;84914.40;;;-7.50
69597;BMP180;70000;51.176;-115.568;2024-03-02T00:21:07;84923.40;;;-7.50
69597;BMP180;70000;51.176;-115.568;2024-03-02T00:23:38;84924.60;;;-7.44
69597;BMP180;70000;51.176;-115.568;2024-03-02T00:26:26;84933.00;;;-7.40
69597;BMP180;70000;51.176;-115.568;2024-03-02T00:28:56;84927.00;;;-7.40
69597;BMP180;70000;51.176;-115.568;2024-03-02T00:31:25;84939.20;;;-7.40
69597;BMP180;70000;51.176;-115.568;2024-03-02T00:33:55;84942.80;;;-7.40
69597;BMP180;70000;51.176;-115.568;2024-03-02T00:36:27;84946.20;;;-7.34
69597;BMP180;70000;51.176;-115.568;2024-03-02T00:38:57;84944.00;;;-7.34
69597;BMP180;70000;51.176;-115.568;2024-03-02T00:41:32;84942.60;;;-7.40
69597;BMP180;70000;51.176;-115.568;2024-03-02T00:44:03;84942.60;;;-7.38
69597;BMP180;70000;51.176;-115.568;2024-03-02T00:46:40;84943.60;;;-7.30
69597;BMP180;70000;51.176;-115.568;2024-03-02T00:49:22;84943.00;;;-7.30
69597;BMP180;70000;51.176;-115.568;2024-03-02T00:51:53;84944.00;;;-7.30
69597;BMP180;70000;51.176;-115.568;2024-03-02T00:54:27;84941.60;;;-7.30
69597;BMP180;70000;51.176;-115.568;2024-03-02T00:56:57;84945.20;;;-7.30
69597;BMP180;70000;51.176;-115.568;2024-03-02T00:59:27;84944.00;;;-7.40
69597;BMP180;70000;51.176;-115.568;2024-03-02T01:01:56;84942.40;;;-7.40
69597;BMP180;70000;51.176;-115.568;2024-03-02T01:04:25;84946.80;;;-7.50
69597;BMP180;70000;51.176;-115.568;2024-03-02T01:06:54;84946.40;;;-7.50
69597;BMP180;70000;51.176;-115.568;2024-03-02T01:09:24;84937.60;;;-7.60
69597;BMP180;70000;51.176;-115.568;2024-03-02T01:11:53;84938.00;;;-7.60
69597;BMP180;70000;51.176;-115.568;2024-03-02T01:14:22;84938.40;;;-7.60
69597;BMP180;70000;51.176;-115.568;2024-03-02T01:16:52;84936.60;;;-7.70
69597;BMP180;70000;51.176;-115.568;2024-03-02T01:19:21;84938.20;;;-7.70
69597;BMP180;70000;51.176;-115.568;2024-03-02T01:21:50;84943.20;;;-7.78
69597;BMP180;70000;51.176;-115.568;2024-03-02T01:24:19;84942.40;;;-7.80
69597;BMP180;70000;51.176;-115.568;2024-03-02T01:26:48;84939.60;;;-7.90
69597;BMP180;70000;51.176;-115.568;2024-03-02T01:29:17;84939.20;;;-7.90
69597;BMP180;70000;51.176;-115.568;2024-03-02T01:31:46;84930.60;;;-8.00
69597;BMP180;70000;51.176;-115.568;2024-03-02T01:34:16;84925.60;;;-8.08
69597;BMP180;70000;51.176;-115.568;2024-03-02T01:36:48;84927.40;;;-8.10
69597;BMP180;70000;51.176;-115.568;2024-03-02T01:39:17;84930.60;;;-8.14
69597;BMP180;70000;51.176;-115.568;2024-03-02T01:41:47;84937.80;;;-8.20
69597;BMP180;70000;51.176;-115.568;2024-03-02T01:44:16;84933.00;;;-8.20
69597;BMP180;70000;51.176;-115.568;2024-03-02T01:46:48;84934.00;;;-8.30
69597;BMP180;70000;51.176;-115.568;2024-03-02T01:49:17;84937.00;;;-8.36
69597;BMP180;70000;51.176;-115.568;2024-03-02T02:02:18;84967.00;;;-8.60
69597;BMP180;70000;51.176;-115.568;2024-03-02T02:04:47;84972.40;;;-8.60
69597;BMP180;70000;51.176;-115.568;2024-03-02T02:07:16;84969.60;;;-8.68
69597;BMP180;70000;51.176;-115.568;2024-03-02T02:09:45;84968.80;;;-8.70
69597;BMP180;70000;51.176;-115.568;2024-03-02T02:12:15;84972.60;;;-8.80
69597;BMP180;70000;51.176;-115.568;2024-03-02T02:14:49;84984.60;;;-8.80
69597;BMP180;70000;51.176;-115.568;2024-03-02T02:17:21;84979.80;;;-8.80
69597;BMP180;70000;51.176;-115.568;2024-03-02T02:19:51;84988.00;;;-8.80
69597;BMP180;70000;51.176;-115.568;2024-03-02T02:26:39;85007.80;;;-8.90
69597;BMP180;70000;51.176;-115.568;2024-03-02T02:29:08;85011.40;;;-8.90
69597;BMP180;70000;51.176;-115.568;2024-03-02T02:31:41;85014.20;;;-8.90
69597;BMP180;70000;51.176;-115.568;2024-03-02T02:34:10;85011.80;;;-8.90
69597;BMP180;70000;51.176;-115.568;2024-03-02T02:36:40;85013.80;;;-8.90
69597;BMP180;70000;51.176;-115.568;2024-03-02T02:39:20;85017.40;;;-8.96
69597;BMP180;70000;51.176;-115.568;2024-03-02T02:41:54;85016.60;;;-9.00
69597;BMP180;70000;51.176;-115.568;2024-03-02T02:44:25;85006.20;;;-9.00
69597;BMP180;70000;51.176;-115.568;2024-03-02T02:46:54;85008.40;;;-9.02
69597;BMP180;70000;51.176;-115.568;2024-03-02T02:49:23;85003.40;;;-9.10
69597;BMP180;70000;51.176;-115.568;2024-03-02T02:51:53;84997.00;;;-9.20
69597;BMP180;70000;51.176;-115.568;2024-03-02T02:54:22;84997.00;;;-9.20
69597;BMP180;70000;51.176;-115.568;2024-03-02T02:57:36;85003.80;;;-9.30
69597;BMP180;70000;51.176;-115.568;2024-03-02T03:00:13;85002.80;;;-9.34
69597;BMP180;70000;51.176;-115.568;2024-03-02T03:05:50;84998.20;;;-9.36
69597;BMP180;70000;51.176;-115.568;2024-03-02T03:08:20;84997.60;;;-9.36
69597;BMP180;70000;51.176;-115.568;2024-03-02T03:10:49;85001.80;;;-9.40
69597;BMP180;70000;51.176;-115.568;2024-03-02T03:13:19;85012.80;;;-9.40
69597;BMP180;70000;51.176;-115.568;2024-03-02T03:15:49;85006.40;;;-9.40
69597;BMP180;70000;51.176;-115.568;2024-03-02T03:18:20;85000.60;;;-9.40
69597;BMP180;70000;51.176;-115.568;2024-03-02T03:20:49;84997.00;;;-9.40
69597;BMP180;70000;51.176;-115.568;2024-03-02T03:23:18;84993.60;;;-9.40
69597;BMP180;70000;51.176;-115.568;2024-03-02T03:25:48;84992.60;;;-9.40
69597;BMP180;70000;51.176;-115.568;2024-03-02T03:28:17;84993.20;;;-9.38
69597;BMP180;70000;51.176;-115.568;2024-03-02T03:30:47;84991.60;;;-9.36
69597;BMP180;70000;51.176;-115.568;2024-03-02T03:33:16;84988.60;;;-9.30
69597;BMP180;70000;51.176;-115.568;2024-03-02T03:35:45;84984.20;;;-9.40
69597;BMP180;70000;51.176;-115.568;2024-03-02T03:38:17;84985.80;;;-9.40
69597;BMP180;70000;51.176;-115.568;2024-03-02T03:40:46;84980.00;;;-9.40
69597;BMP180;70000;51.176;-115.568;2024-03-02T03:43:16;84979.40;;;-9.34
69597;BMP180;70000;51.176;-115.568;2024-03-02T03:45:45;84977.40;;;-9.34
69597;BMP180;70000;51.176;-115.568;2024-03-02T03:48:14;84983.40;;;-9.30
69597;BMP180;70000;51.176;-115.568;2024-03-02T03:50:46;84991.80;;;-9.40
69597;BMP180;70000;51.176;-115.568;2024-03-02T03:53:15;84986.40;;;-9.40
69597;BMP180;70000;51.176;-115.568;2024-03-02T03:55:45;84991.00;;;-9.40
69597;BMP180;70000;51.176;-115.568;2024-03-02T03:58:15;84999.40;;;-9.40
69597;BMP180;70000;51.176;-115.568;2024-03-02T04:00:49;84996.60;;;-9.40
69597;BMP180;70000;51.176;-115.568;2024-03-02T04:03:18;84994.00;;;-9.50
69597;BMP180;70000;51.176;-115.568;2024-03-02T04:05:48;84999.40;;;-9.50
69597;BMP180;70000;51.176;-115.568;2024-03-02T04:08:18;85002.20;;;-9.50
69597;BMP180;70000;51.176;-115.568;2024-03-02T04:10:51;85000.20;;;-9.50
69597;BMP180;70000;51.176;-115.568;2024-03-02T04:13:20;84995.60;;;-9.60
69597;BMP180;70000;51.176;-115.568;2024-03-02T04:15:50;84997.80;;;-9.60
69597;BMP180;70000;51.176;-115.568;2024-03-02T04:21:31;85001.60;;;-9.62
69597;BMP180;70000;51.176;-115.568;2024-03-02T04:24:48;85005.80;;;-9.62
69597;BMP180;70000;51.176;-115.568;2024-03-02T04:27:44;85003.60;;;-9.70
69597;BMP180;70000;51.176;-115.568;2024-03-02T04:30:13;85008.20;;;-9.70
69597;BMP180;70000;51.176;-115.568;2024-03-02T04:32:48;85003.00;;;-9.70
69597;BMP180;70000;51.176;-115.568;2024-03-02T04:35:18;85000.60;;;-9.74
69597;BMP180;70000;51.176;-115.568;2024-03-02T04:37:47;85004.40;;;-9.72
69597;BMP180;70000;51.176;-115.568;2024-03-02T04:40:19;85003.40;;;-9.80
69597;BMP180;70000;51.176;-115.568;2024-03-02T04:42:48;85001.80;;;-9.80
69597;BMP180;70000;51.176;-115.568;2024-03-02T04:50:08;84989.80;;;-9.94
69597;BMP180;70000;51.176;-115.568;2024-03-02T04:52:38;84987.60;;;-10.00
69597;BMP180;70000;51.176;-115.568;2024-03-02T04:55:07;84979.80;;;-10.00
69597;BMP180;70000;51.176;-115.568;2024-03-02T04:57:45;84980.80;;;-10.00
69597;BMP180;70000;51.176;-115.568;2024-03-02T05:00:20;84980.80;;;-10.04
69597;BMP180;70000;51.176;-115.568;2024-03-02T05:06:02;84979.60;;;-10.10
69597;BMP180;70000;51.176;-115.568;2024-03-02T05:08:32;84985.00;;;-10.12
69597;BMP180;70000;51.176;-115.568;2024-03-02T05:11:02;84993.60;;;-10.18
69597;BMP180;70000;51.176;-115.568;2024-03-02T05:13:51;84998.60;;;-10.20
69597;BMP180;70000;51.176;-115.568;2024-03-02T05:16:20;85005.80;;;-10.20
69597;BMP180;70000;51.176;-115.568;2024-03-02T05:25:35;85007.40;;;-10.32
69597;BMP180;70000;51.176;-115.568;2024-03-02T05:28:07;85008.00;;;-10.32
69597;BMP180;70000;51.176;-115.568;2024-03-02T05:30:37;84997.00;;;-10.38
69597;BMP180;70000;51.176;-115.568;2024-03-02T05:33:07;85012.40;;;-10.38
69597;BMP180;70000;51.176;-115.568;2024-03-02T05:35:36;85003.60;;;-10.30
69597;BMP180;70000;51.176;-115.568;2024-03-02T05:38:08;84997.20;;;-10.30
69597;BMP180;70000;51.176;-115.568;2024-03-02T05:40:38;84991.60;;;-10.30
69597;BMP180;70000;51.176;-115.568;2024-03-02T05:43:07;84996.20;;;-10.30
69597;BMP180;70000;51.176;-115.568;2024-03-02T05:45:58;84992.80;;;-10.30
69597;BMP180;70000;51.176;-115.568;2024-03-02T05:48:32;84994.60;;;-10.30
69597;BMP180;70000;51.176;-115.568;2024-03-02T05:51:03;84996.20;;;-10.30
69597;BMP180;70000;51.176;-115.568;2024-03-02T05:53:37;84991.40;;;-10.30
69597;BMP180;70000;51.176;-115.568;2024-03-02T05:56:07;84993.40;;;-10.30
69597;BMP180;70000;51.176;-115.568;2024-03-02T06:01:22;84999.60;;;-10.30
69597;BMP180;70000;51.176;-115.568;2024-03-02T06:03:57;84999.00;;;-10.30
69597;BMP180;70000;51.176;-115.568;2024-03-02T06:06:27;85003.40;;;-10.38
69597;BMP180;70000;51.176;-115.568;2024-03-02T06:08:57;85000.60;;;-10.40
69597;BMP180;70000;51.176;-115.568;2024-03-02T06:11:27;85001.20;;;-10.40
69597;BMP180;70000;51.176;-115.568;2024-03-02T06:13:56;85001.40;;;-10.40
69597;BMP180;70000;51.176;-115.568;2024-03-02T06:16:25;85005.20;;;-10.40
69597;BMP180;70000;51.176;-115.568;2024-03-02T06:18:54;84999.80;;;-10.40
69597;BMP180;70000;51.176;-115.568;2024-03-02T06:21:27;85001.80;;;-10.40
69597;BMP180;70000;51.176;-115.568;2024-03-02T06:23:56;84995.40;;;-10.40
69597;BMP180;70000;51.176;-115.568;2024-03-02T06:26:26;84989.80;;;-10.40
69597;BMP180;70000;51.176;-115.568;2024-03-02T06:28:55;84996.00;;;-10.40
69597;BMP180;70000;51.176;-115.568;2024-03-02T06:31:24;84993.40;;;-10.40
69597;BMP180;70000;51.176;-115.568;2024-03-02T06:33:56;84991.40;;;-10.40
69597;BMP180;70000;51.176;-115.568;2024-03-02T06:36:25;84990.20;;;-10.40
69597;BMP180;70000;51.176;-115.568;2024-03-02T06:41:25;84984.00;;;-10.40
69597;BMP180;70000;51.176;-115.568;2024-03-02T06:43:54;84988.00;;;-10.40
69597;BMP180;70000;51.176;-115.568;2024-03-02T06:46:28;84985.40;;;-10.40
69597;BMP180;70000;51.176;-115.568;2024-03-02T06:49:01;84988.60;;;-10.40
69597;BMP180;70000;51.176;-115.568;2024-03-02T06:51:34;84987.20;;;-10.40
69597;BMP180;70000;51.176;-115.568;2024-03-02T06:54:06;84989.80;;;-10.40
69597;BMP180;70000;51.176;-115.568;2024-03-02T06:56:35;84986.40;;;-10.40
69597;BMP180;70000;51.176;-115.568;2024-03-02T06:59:04;84983.00;;;-10.40
69597;BMP180;70000;51.176;-115.568;2024-03-02T07:01:33;84978.80;;;-10.40
69597;BMP180;70000;51.176;-115.568;2024-03-02T07:04:03;84979.80;;;-10.42
69597;BMP180;70000;51.176;-115.568;2024-03-02T07:06:34;84972.00;;;-10.40
69597;BMP180;70000;51.176;-115.568;2024-03-02T07:09:03;84970.80;;;-10.42
69597;BMP180;70000;51.176;-115.568;2024-03-02T07:11:33;84962.80;;;-10.40
69597;BMP180;70000;51.176;-115.568;2024-03-02T07:14:02;84964.00;;;-10.40
69597;BMP180;70000;51.176;-115.568;2024-03-02T07:16:31;84966.60;;;-10.40
69597;BMP180;70000;51.176;-115.568;2024-03-02T07:19:03;84967.00;;;-10.40
69597;BMP180;70000;51.176;-115.568;2024-03-02T07:21:32;84956.80;;;-10.40
69597;BMP180;70000;51.176;-115.568;2024-03-02T07:24:04;84955.60;;;-10.42
69597;BMP180;70000;51.176;-115.568;2024-03-02T07:26:33;84954.80;;;-10.50
69597;BMP180;70000;51.176;-115.568;2024-03-02T07:29:05;84953.40;;;-10.50
69597;BMP180;70000;51.176;-115.568;2024-03-02T07:31:34;84955.40;;;-10.50
69597;BMP180;70000;51.176;-115.568;2024-03-02T07:34:03;84943.80;;;-10.60
69597;BMP180;70000;51.176;-115.568;2024-03-02T07:36:33;84942.00;;;-10.60
69597;BMP180;70000;51.176;-115.568;2024-03-02T07:39:02;84941.80;;;-10.60
69597;BMP180;70000;51.176;-115.568;2024-03-02T07:41:30;84937.00;;;-10.60
69597;BMP180;70000;51.176;-115.568;2024-03-02T07:47:08;84932.60;;;-10.66
69597;BMP180;70000;51.176;-115.568;2024-03-02T07:49:37;84951.80;;;-10.60
69597;BMP180;70000;51.176;-115.568;2024-03-02T07:52:06;84940.60;;;-10.60
69597;BMP180;70000;51.176;-115.568;2024-03-02T07:54:36;84937.80;;;-10.60
69597;BMP180;70000;51.176;-115.568;2024-03-02T07:57:05;84946.60;;;-10.60
69597;BMP180;70000;51.176;-115.568;2024-03-02T07:59:36;84947.00;;;-10.60
69597;BMP180;70000;51.176;-115.568;2024-03-02T08:02:06;84958.40;;;-10.60
69597;BMP180;70000;51.176;-115.568;2024-03-02T08:04:35;84956.80;;;-10.60
69597;BMP180;70000;51.176;-115.568;2024-03-02T08:07:46;84961.20;;;-10.60
69597;BMP180;70000;51.176;-115.568;2024-03-02T08:10:14;84959.00;;;-10.60
69597;BMP180;70000;51.176;-115.568;2024-03-02T08:12:42;84960.00;;;-10.60
69597;BMP180;70000;51.176;-115.568;2024-03-02T08:15:11;84955.00;;;-10.60
69597;BMP180;70000;51.176;-115.568;2024-03-02T08:17:42;84961.00;;;-10.60
69597;BMP180;70000;51.176;-115.568;2024-03-02T08:20:16;84959.20;;;-10.60
69597;BMP180;70000;51.176;-115.568;2024-03-02T08:22:46;84949.40;;;-10.58
69597;BMP180;70000;51.176;-115.568;2024-03-02T08:25:15;84942.40;;;-10.60
69597;BMP180;70000;51.176;-115.568;2024-03-02T08:27:44;84944.60;;;-10.60
69597;BMP180;70000;51.176;-115.568;2024-03-02T08:30:13;84935.80;;;-10.60
69597;BMP180;70000;51.176;-115.568;2024-03-02T08:32:42;84927.60;;;-10.60
69597;BMP180;70000;51.176;-115.568;2024-03-02T08:35:10;84936.60;;;-10.60
69597;BMP180;70000;51.176;-115.568;2024-03-02T08:37:41;84934.20;;;-10.60
69597;BMP180;70000;51.176;-115.568;2024-03-02T08:40:11;84934.00;;;-10.60
69597;BMP180;70000;51.176;-115.568;2024-03-02T08:42:45;84932.80;;;-10.60
69597;BMP180;70000;51.176;-115.568;2024-03-02T08:45:14;84933.00;;;-10.60
69597;BMP180;70000;51.176;-115.568;2024-03-02T08:47:43;84931.20;;;-10.62
69597;BMP180;70000;51.176;-115.568;2024-03-02T08:50:11;84937.60;;;-10.64
69597;BMP180;70000;51.176;-115.568;2024-03-02T08:52:39;84914.00;;;-10.68
69597;BMP180;70000;51.176;-115.568;2024-03-02T08:55:08;84916.40;;;-10.68
69597;BMP180;70000;51.176;-115.568;2024-03-02T08:57:39;84916.80;;;-10.68
69597;BMP180;70000;51.176;-115.568;2024-03-02T09:00:08;84909.60;;;-10.70
69597;BMP180;70000;51.176;-115.568;2024-03-02T09:02:37;84920.20;;;-10.70
69597;BMP180;70000;51.176;-115.568;2024-03-02T09:05:10;84912.60;;;-10.70
69597;BMP180;70000;51.176;-115.568;2024-03-02T09:07:38;84901.80;;;-10.78
69597;BMP180;70000;51.176;-115.568;2024-03-02T09:10:08;84901.40;;;-10.80
69597;BMP180;70000;51.176;-115.568;2024-03-02T09:12:38;84903.80;;;-10.82
69597;BMP180;70000;51.176;-115.568;2024-03-02T09:15:08;84886.40;;;-10.90
69597;BMP180;70000;51.176;-115.568;2024-03-02T09:17:36;84894.80;;;-10.90
69597;BMP180;70000;51.176;-115.568;2024-03-02T09:20:05;84886.20;;;-11.00
69597;BMP180;70000;51.176;-115.568;2024-03-02T09:22:34;84881.20;;;-11.00
69597;BMP180;70000;51.176;-115.568;2024-03-02T09:25:04;84893.40;;;-10.94
69597;BMP180;70000;51.176;-115.568;2024-03-02T09:27:38;84878.40;;;-10.90
69597;BMP180;70000;51.176;-115.568;2024-03-02T09:30:27;84878.40;;;-11.00
69597;BMP180;70000;51.176;-115.568;2024-03-02T09:32:56;84876.80;;;-11.00
69597;BMP180;70000;51.176;-115.568;2024-03-02T09:35:28;84867.80;;;-11.04
69597;BMP180;70000;51.176;-115.568;2024-03-02T09:37:57;84870.20;;;-11.10
69597;BMP180;70000;51.176;-115.568;2024-03-02T09:40:27;84863.40;;;-11.10
69597;BMP180;70000;51.176;-115.568;2024-03-02T09:42:57;84859.00;;;-11.10
69597;BMP180;70000;51.176;-115.568;2024-03-02T09:45:27;84866.60;;;-11.10
69597;BMP180;70000;51.176;-115.568;2024-03-02T09:47:56;84864.40;;;-11.10
69597;BMP180;70000;51.176;-115.568;2024-03-02T09:50:25;84876.80;;;-11.10
69597;BMP180;70000;51.176;-115.568;2024-03-02T09:52:55;84878.40;;;-11.10
69597;BMP180;70000;51.176;-115.568;2024-03-02T09:55:24;84889.60;;;-11.10
69597;BMP180;70000;51.176;-115.568;2024-03-02T09:57:54;84894.40;;;-11.10
69597;BMP180;70000;51.176;-115.568;2024-03-02T10:00:23;84879.60;;;-11.10
69597;BMP180;70000;51.176;-115.568;2024-03-02T10:02:56;84872.20;;;-11.10
69597;BMP180;70000;51.176;-115.568;2024-03-02T10:05:27;84873.40;;;-11.10
69597;BMP180;70000;51.176;-115.568;2024-03-02T10:08:03;84855.40;;;-11.10
69597;BMP180;70000;51.176;-115.568;2024-03-02T10:10:40;84856.40;;;-11.10
69597;BMP180;70000;51.176;-115.568;2024-03-02T10:13:13;84865.00;;;-11.10
69597;BMP180;70000;51.176;-115.568;2024-03-02T10:15:42;84864.40;;;-11.10
69597;BMP180;70000;51.176;-115.568;2024-03-02T10:18:13;84876.60;;;-11.14
69597;BMP180;70000;51.176;-115.568;2024-03-02T10:20:43;84856.00;;;-11.10
69597;BMP180;70000;51.176;-115.568;2024-03-02T10:23:15;84883.40;;;-11.20
69597;BMP180;70000;51.176;-115.568;2024-03-02T10:25:45;84880.80;;;-11.20
69597;BMP180;70000;51.176;-115.568;2024-03-02T10:28:24;84889.00;;;-11.20
69597;BMP180;70000;51.176;-115.568;2024-03-02T10:33:22;84893.40;;;-11.28
69597;BMP180;70000;51.176;-115.568;2024-03-02T10:35:54;84889.20;;;-11.28
69597;BMP180;70000;51.176;-115.568;2024-03-02T10:38:27;84889.20;;;-11.28
69597;BMP180;70000;51.176;-115.568;2024-03-02T10:40:59;84880.60;;;-11.30
69597;BMP180;70000;51.176;-115.568;2024-03-02T10:43:30;84890.80;;;-11.30
69597;BMP180;70000;51.176;-115.568;2024-03-02T10:46:02;84903.80;;;-11.30
69597;BMP180;70000;51.176;-115.568;2024-03-02T10:48:33;84890.20;;;-11.30
69597;BMP180;70000;51.176;-115.568;2024-03-02T10:51:04;84909.20;;;-11.30
69597;BMP180;70000;51.176;-115.568;2024-03-02T10:53:33;84880.80;;;-11.40
69597;BMP180;70000;51.176;-115.568;2024-03-02T10:56:09;84882.80;;;-11.40
69597;BMP180;70000;51.176;-115.568;2024-03-02T10:58:42;84878.80;;;-11.40
69597;BMP180;70000;51.176;-115.568;2024-03-02T11:01:12;84887.60;;;-11.50
69597;BMP180;70000;51.176;-115.568;2024-03-02T11:03:43;84874.40;;;-11.50
69597;BMP180;70000;51.176;-115.568;2024-03-02T11:06:14;84878.40;;;-11.50
69597;BMP180;70000;51.176;-115.568;2024-03-02T11:08:47;84878.00;;;-11.60
69597;BMP180;70000;51.176;-115.568;2024-03-02T11:11:29;84880.20;;;-11.60
69597;BMP180;70000;51.176;-115.568;2024-03-02T11:14:02;84875.20;;;-11.70
69597;BMP180;70000;51.176;-115.568;2024-03-02T11:16:57;84882.80;;;-11.70
69597;BMP180;70000;51.176;-115.568;2024-03-02T11:19:27;84883.40;;;-11.72
69597;BMP180;70000;51.176;-115.568;2024-03-02T11:21:57;84881.80;;;-11.70
69597;BMP180;70000;51.176;-115.568;2024-03-02T11:27:06;84888.60;;;-11.70
69597;BMP180;70000;51.176;-115.568;2024-03-02T11:29:45;84882.20;;;-11.70
69597;BMP180;70000;51.176;-115.568;2024-03-02T11:32:21;84888.40;;;-11.70
69597;BMP180;70000;51.176;-115.568;2024-03-02T11:34:52;84900.20;;;-11.70
69597;BMP180;70000;51.176;-115.568;2024-03-02T11:37:21;84887.00;;;-11.70
69597;BMP180;70000;51.176;-115.568;2024-03-02T11:39:52;84891.00;;;-11.72
69597;BMP180;70000;51.176;-115.568;2024-03-02T11:42:22;84892.60;;;-11.76
69597;BMP180;70000;51.176;-115.568;2024-03-02T11:44:51;84901.00;;;-11.74
69597;BMP180;70000;51.176;-115.568;2024-03-02T11:47:20;84903.60;;;-11.72
69597;BMP180;70000;51.176;-115.568;2024-03-02T11:49:52;84905.00;;;-11.78
69597;BMP180;70000;51.176;-115.568;2024-03-02T11:52:23;84923.80;;;-11.80
69597;BMP180;70000;51.176;-115.568;2024-03-02T11:54:53;84903.40;;;-11.80
69597;BMP180;70000;51.176;-115.568;2024-03-02T11:57:23;84916.40;;;-11.80
69597;BMP180;70000;51.176;-115.568;2024-03-02T11:59:52;84905.20;;;-11.80
69597;BMP180;70000;51.176;-115.568;2024-03-02T12:02:22;84916.80;;;-11.80
69597;BMP180;70000;51.176;-115.568;2024-03-02T12:04:51;84913.60;;;-11.80
69597;BMP180;70000;51.176;-115.568;2024-03-02T12:07:24;84917.20;;;-11.80
69597;BMP180;70000;51.176;-115.568;2024-03-02T12:10:02;84920.60;;;-11.80
69597;BMP180;70000;51.176;-115.568;2024-03-02T12:12:32;84927.60;;;-11.80
69597;BMP180;70000;51.176;-115.568;2024-03-02T12:15:02;84933.80;;;-11.80
69597;BMP180;70000;51.176;-115.568;2024-03-02T12:17:32;84923.60;;;-11.82
69597;BMP180;70000;51.176;-115.568;2024-03-02T12:20:01;84924.40;;;-11.90
69597;BMP180;70000;51.176;-115.568;2024-03-02T12:22:32;84929.20;;;-11.90
69597;BMP180;70000;51.176;-115.568;2024-03-02T12:25:01;84925.60;;;-11.90
69597;BMP180;70000;51.176;-115.568;2024-03-02T12:27:31;84924.00;;;-11.90
69597;BMP180;70000;51.176;-115.568;2024-03-02T12:30:01;84929.20;;;-11.90
69597;BMP180;70000;51.176;-115.568;2024-03-02T12:32:30;84924.20;;;-11.90
69597;BMP180;70000;51.176;-115.568;2024-03-02T12:34:59;84927.00;;;-11.92
69597;BMP180;70000;51.176;-115.568;2024-03-02T12:37:29;84929.20;;;-12.00
69597;BMP180;70000;51.176;-115.568;2024-03-02T12:39:58;84926.80;;;-12.00
69597;BMP180;70000;51.176;-115.568;2024-03-02T12:42:28;84916.80;;;-12.04
69597;BMP180;70000;51.176;-115.568;2024-03-02T12:44:57;84923.80;;;-12.10
69597;BMP180;70000;51.176;-115.568;2024-03-02T12:47:26;84926.20;;;-12.10
69597;BMP180;70000;51.176;-115.568;2024-03-02T12:49:56;84914.60;;;-12.10
69597;BMP180;70000;51.176;-115.568;2024-03-02T12:52:26;84917.40;;;-12.08
69597;BMP180;70000;51.176;-115.568;2024-03-02T12:54:55;84909.00;;;-12.10
69597;BMP180;70000;51.176;-115.568;2024-03-02T12:57:28;84913.20;;;-12.10
69597;BMP180;70000;51.176;-115.568;2024-03-02T13:00:06;84914.00;;;-12.10
69597;BMP180;70000;51.176;-115.568;2024-03-02T13:02:42;84923.40;;;-12.10
69597;BMP180;70000;51.176;-115.568;2024-03-02T13:05:11;84924.20;;;-12.10
69597;BMP180;70000;51.176;-115.568;2024-03-02T13:07:40;84929.00;;;-12.10
69597;BMP180;70000;51.176;-115.568;2024-03-02T13:10:10;84916.20;;;-12.16
69597;BMP180;70000;51.176;-115.568;2024-03-02T13:12:40;84915.40;;;-12.20
69597;BMP180;70000;51.176;-115.568;2024-03-02T13:15:10;84931.00;;;-12.20
69597;BMP180;70000;51.176;-115.568;2024-03-02T13:17:45;84916.20;;;-12.20
69597;BMP180;70000;51.176;-115.568;2024-03-02T13:20:34;84916.20;;;-12.20
69597;BMP180;70000;51.176;-115.568;2024-03-02T13:23:04;84912.80;;;-12.20
69597;BMP180;70000;51.176;-115.568;2024-03-02T13:25:32;84913.00;;;-12.20
69597;BMP180;70000;51.176;-115.568;2024-03-02T13:28:02;84913.80;;;-12.10
69597;BMP180;70000;51.176;-115.568;2024-03-02T13:33:39;84922.60;;;-12.28
69597;BMP180;70000;51.176;-115.568;2024-03-02T13:36:08;84917.60;;;-12.30
69597;BMP180;70000;51.176;-115.568;2024-03-02T13:39:16;84908.00;;;-12.20
69597;BMP180;70000;51.176;-115.568;2024-03-02T13:41:45;84901.00;;;-12.20
69597;BMP180;70000;51.176;-115.568;2024-03-02T13:44:20;84906.60;;;-12.20
69597;BMP180;70000;51.176;-115.568;2024-03-02T13:46:49;84910.00;;;-12.20
69597;BMP180;70000;51.176;-115.568;2024-03-02T13:49:19;84907.20;;;-12.20
69597;BMP180;70000;51.176;-115.568;2024-03-02T13:51:47;84909.20;;;-12.20
69597;BMP180;70000;51.176;-115.568;2024-03-02T13:54:16;84914.80;;;-12.18
69597;BMP180;70000;51.176;-115.568;2024-03-02T13:56:44;84923.80;;;-12.10
69597;BMP180;70000;51.176;-115.568;2024-03-02T13:59:12;84924.40;;;-12.10
69597;BMP180;70000;51.176;-115.568;2024-03-02T14:01:40;84918.40;;;-12.10
69597;BMP180;70000;51.176;-115.568;2024-03-02T14:04:12;84920.80;;;-12.10
69597;BMP180;70000;51.176;-115.568;2024-03-02T14:06:43;84919.40;;;-12.10
69597;BMP180;70000;51.176;-115.568;2024-03-02T14:09:11;84919.20;;;-12.10
69597;BMP180;70000;51.176;-115.568;2024-03-02T14:11:40;84920.40;;;-12.10
69597;BMP180;70000;51.176;-115.568;2024-03-02T14:14:08;84920.00;;;-12.10
69597;BMP180;70000;51.176;-115.568;2024-03-02T14:16:37;84908.20;;;-12.20
69597;BMP180;70000;51.176;-115.568;2024-03-02T14:19:05;84903.00;;;-12.20
69597;BMP180;70000;51.176;-115.568;2024-03-02T14:21:34;84912.00;;;-12.20
69597;BMP180;70000;51.176;-115.568;2024-03-02T14:24:04;84909.60;;;-12.14
69597;BMP180;70000;51.176;-115.568;2024-03-02T14:26:37;84910.00;;;-12.20
69597;BMP180;70000;51.176;-115.568;2024-03-02T14:29:06;84911.80;;;-12.20
69597;BMP180;70000;51.176;-115.568;2024-03-02T14:31:35;84920.40;;;-12.20
69597;BMP180;70000;51.176;-115.568;2024-03-02T14:34:03;84922.40;;;-12.16
69597;BMP180;70000;51.176;-115.568;2024-03-02T14:36:32;84912.40;;;-12.10
69597;BMP180;70000;51.176;-115.568;2024-03-02T14:39:02;84919.00;;;-12.20